createdAt,value
2022-09-16T00:00:28.031Z,9.1
2022-09-16T00:05:16.903Z,8.0
2022-09-16T00:10:23.005Z,8.1
2022-09-16T00:15:29.347Z,11.7
2022-09-16T00:20:18.066Z,10.8
2022-09-16T00:25:24.101Z,9.9
2022-09-16T00:30:30.220Z,9.9
2022-09-16T00:35:19.223Z,9.4
2022-09-16T00:40:25.555Z,10.8
2022-09-16T00:45:31.373Z,11.0
2022-09-16T00:50:20.459Z,9.1
2022-09-16T00:55:26.446Z,9.6
2022-09-16T01:00:32.648Z,9.6
2022-09-16T01:05:20.627Z,10.6
2022-09-16T01:10:26.743Z,10.3
2022-09-16T01:15:15.803Z,13.3
2022-09-16T01:20:21.843Z,11.0
2022-09-16T01:25:27.883Z,11.6
2022-09-16T01:30:16.983Z,11.4
2022-09-16T01:35:23.011Z,11.3
2022-09-16T01:40:29.314Z,11.6
2022-09-16T01:45:18.198Z,9.0
2022-09-16T01:50:24.315Z,10.1
2022-09-16T01:55:30.290Z,10.3
2022-09-16T02:00:19.346Z,16.0
2022-09-16T02:05:25.486Z,10.9
2022-09-16T02:10:31.455Z,11.7
2022-09-16T02:15:20.578Z,11.0
2022-09-16T02:20:26.778Z,13.0
2022-09-16T02:25:32.659Z,12.3
2022-09-16T02:30:21.686Z,12.1
2022-09-16T02:35:27.790Z,16.3
2022-09-16T02:40:16.813Z,15.2
2022-09-16T02:45:22.090Z,14.9
2022-09-16T02:50:27.992Z,12.5
2022-09-16T02:55:17.074Z,13.3
2022-09-16T03:00:23.106Z,11.6
2022-09-16T03:05:28.687Z,15.0
2022-09-16T03:10:17.763Z,14.2
2022-09-16T03:15:23.815Z,12.5
2022-09-16T03:20:30.030Z,12.0
2022-09-16T03:25:18.876Z,11.7
2022-09-16T03:30:25.001Z,12.8
2022-09-16T03:35:31.026Z,13.5
2022-09-16T03:40:19.844Z,12.2
2022-09-16T03:45:25.808Z,11.2
2022-09-16T03:50:31.801Z,12.5
2022-09-16T03:55:20.765Z,11.5
2022-09-16T04:00:26.845Z,12.1
2022-09-16T04:05:15.971Z,11.4
2022-09-16T04:10:22.046Z,13.2
2022-09-16T04:15:28.224Z,13.3
2022-09-16T04:20:17.126Z,14.0
2022-09-16T04:25:23.233Z,13.0
2022-09-16T04:30:29.276Z,12.2
2022-09-16T04:35:18.305Z,12.7
2022-09-16T04:40:24.597Z,14.2
2022-09-16T04:45:30.650Z,12.5
2022-09-16T04:50:19.655Z,13.2
2022-09-16T04:55:25.729Z,16.2
2022-09-16T05:00:31.843Z,14.7
2022-09-16T05:05:20.747Z,11.8
2022-09-16T05:10:26.887Z,14.5
2022-09-16T05:15:15.842Z,13.1
2022-09-16T05:20:21.989Z,12.0
2022-09-16T05:25:27.995Z,13.9
2022-09-16T05:30:17.084Z,11.8
2022-09-16T05:35:23.084Z,11.5
2022-09-16T05:40:29.480Z,12.0
2022-09-16T05:45:24.176Z,11.3
2022-09-16T05:50:25.483Z,12.3
2022-09-16T05:55:30.510Z,12.8
2022-09-16T06:00:19.570Z,12.4
2022-09-16T06:05:25.608Z,10.5
2022-09-16T06:10:31.689Z,10.8
2022-09-16T06:15:20.735Z,11.2
2022-09-16T06:20:26.705Z,11.2
2022-09-16T06:25:32.818Z,12.3
2022-09-16T06:30:21.817Z,11.6
2022-09-16T06:35:27.961Z,11.9
2022-09-16T06:40:16.359Z,10.8
2022-09-16T06:45:22.369Z,13.3
2022-09-16T06:50:28.413Z,11.4
2022-09-16T06:55:17.461Z,12.9
2022-09-16T07:00:23.522Z,11.3
2022-09-16T07:05:29.008Z,10.2
2022-09-16T07:10:18.057Z,10.1
2022-09-16T07:15:24.154Z,10.3
2022-09-16T07:20:30.216Z,10.0
2022-09-16T07:25:19.224Z,10.5
2022-09-16T07:30:25.494Z,9.0
2022-09-16T07:35:31.399Z,10.2
2022-09-16T07:40:20.178Z,8.5
2022-09-16T07:45:26.215Z,8.7
2022-09-16T07:50:32.282Z,10.5
2022-09-16T07:55:21.344Z,9.5
2022-09-16T08:00:27.332Z,10.1
2022-09-16T08:05:16.449Z,10.5
2022-09-16T08:10:22.533Z,9.8
2022-09-16T08:15:28.634Z,8.6
2022-09-16T08:20:17.659Z,9.0
2022-09-16T08:25:23.977Z,7.5
2022-09-16T08:30:29.738Z,7.8
2022-09-16T08:35:18.804Z,7.1
2022-09-16T08:40:23.847Z,9.1
2022-09-16T08:45:30.008Z,7.8
2022-09-16T08:50:18.942Z,10.0
2022-09-16T08:55:25.189Z,9.4
2022-09-16T09:00:31.990Z,6.7
2022-09-16T09:05:20.099Z,6.6
2022-09-16T09:10:26.132Z,6.8
2022-09-16T09:15:32.256Z,6.7
2022-09-16T09:20:21.418Z,6.6
2022-09-16T09:25:27.354Z,6.3
2022-09-16T09:30:16.388Z,6.2
2022-09-16T09:35:22.410Z,5.0
2022-09-16T09:40:28.435Z,6.7
2022-09-16T09:45:17.354Z,5.5
2022-09-16T09:50:23.492Z,6.4
2022-09-16T09:55:29.504Z,5.8
2022-09-16T10:00:18.620Z,5.4
2022-09-16T10:05:24.608Z,5.8
2022-09-16T10:10:30.704Z,5.6
2022-09-16T10:15:19.673Z,6.3
2022-09-16T10:20:25.762Z,5.1
2022-09-16T10:25:31.937Z,5.2
2022-09-16T10:30:20.854Z,5.6
2022-09-16T10:35:26.962Z,6.4
2022-09-16T10:40:32.116Z,8.5
2022-09-16T10:45:21.103Z,5.2
2022-09-16T10:50:27.171Z,6.7
2022-09-16T10:55:16.254Z,5.7
2022-09-16T11:00:22.278Z,5.1
2022-09-16T11:05:28.696Z,6.3
2022-09-16T11:10:17.739Z,6.2
2022-09-16T11:15:23.756Z,6.0
2022-09-16T11:20:29.818Z,6.5
2022-09-16T11:25:18.954Z,6.2
2022-09-16T11:30:25.294Z,5.7
2022-09-16T11:35:31.055Z,5.5
2022-09-16T11:40:19.902Z,7.2
2022-09-16T11:45:25.870Z,5.4
2022-09-16T11:50:31.931Z,4.7
2022-09-16T11:55:21.034Z,5.5
2022-09-16T12:00:27.033Z,5.2
2022-09-16T12:05:16.062Z,5.7
2022-09-16T12:10:22.156Z,5.4
2022-09-16T12:15:28.266Z,5.2
2022-09-16T12:20:17.180Z,5.2
2022-09-16T12:25:23.511Z,5.5
2022-09-16T12:30:29.407Z,5.5
2022-09-16T12:35:18.472Z,5.5
2022-09-16T12:40:23.749Z,6.0
2022-09-16T12:45:29.761Z,6.4
2022-09-16T12:50:18.722Z,5.5
2022-09-16T12:55:24.846Z,6.3
2022-09-16T13:00:30.885Z,6.3
2022-09-16T13:05:20.044Z,5.9
2022-09-16T13:10:46.914Z,6.9
2022-09-16T13:15:32.307Z,5.8
2022-09-16T13:20:21.195Z,7.2
2022-09-16T13:25:27.352Z,5.8
2022-09-16T13:30:16.309Z,8.0
2022-09-16T13:35:22.505Z,5.3
2022-09-16T13:40:28.650Z,5.0
2022-09-16T13:45:21.947Z,6.8
2022-09-16T13:50:23.612Z,5.7
2022-09-16T13:55:29.652Z,5.7
2022-09-16T14:00:18.789Z,6.6
2022-09-16T14:05:23.967Z,6.2
2022-09-16T14:10:30.095Z,5.7
2022-09-16T14:15:19.125Z,5.9
2022-09-16T14:20:25.210Z,7.0
2022-09-16T14:25:31.266Z,6.8
2022-09-16T14:30:20.291Z,7.0
2022-09-16T14:35:26.365Z,6.8
2022-09-16T14:40:32.500Z,5.7
2022-09-16T14:45:21.382Z,6.0
2022-09-16T14:50:27.486Z,7.3
2022-09-16T14:55:16.505Z,8.3
2022-09-16T15:00:22.628Z,6.4
2022-09-16T15:05:28.362Z,7.2
2022-09-16T15:10:17.490Z,6.8
2022-09-16T15:15:23.473Z,6.4
2022-09-16T15:20:29.566Z,6.1
2022-09-16T15:25:18.590Z,5.9
2022-09-16T15:30:24.732Z,7.1
2022-09-16T15:35:30.736Z,8.4
2022-09-16T15:40:19.200Z,8.3
2022-09-16T15:45:25.148Z,9.6
2022-09-16T15:50:31.273Z,6.6
2022-09-16T15:55:21.236Z,6.2
2022-09-16T16:00:26.354Z,9.3
2022-09-16T16:05:31.459Z,6.0
2022-09-16T16:10:20.528Z,6.4
2022-09-16T16:15:26.726Z,6.4
2022-09-16T16:20:15.690Z,5.7
2022-09-16T16:25:21.665Z,6.6
2022-09-16T16:30:27.795Z,6.4
2022-09-16T16:35:16.743Z,6.7
2022-09-16T16:40:23.331Z,6.4
2022-09-16T16:45:29.109Z,6.6
2022-09-16T16:50:18.164Z,6.4
2022-09-16T16:55:24.227Z,7.2
2022-09-16T17:00:30.304Z,6.3
2022-09-16T17:05:19.359Z,7.4
2022-09-16T17:10:25.512Z,9.7
2022-09-16T17:15:31.552Z,8.9
2022-09-16T17:20:20.571Z,7.5
2022-09-16T17:25:26.611Z,6.8
2022-09-16T17:30:32.757Z,7.3
2022-09-16T17:35:21.713Z,5.6
2022-09-16T17:40:27.089Z,6.6
2022-09-16T17:45:15.900Z,7.4
2022-09-16T17:50:23.075Z,8.0
2022-09-16T17:55:28.057Z,7.5
2022-09-16T18:00:17.247Z,6.7
2022-09-16T18:05:26.714Z,6.9
2022-09-16T18:10:29.349Z,8.4
2022-09-16T18:15:18.326Z,7.7
2022-09-16T18:20:24.466Z,7.8
2022-09-16T18:25:30.459Z,7.1
2022-09-16T18:30:19.554Z,10.6
2022-09-16T18:35:25.619Z,8.5
2022-09-16T18:40:30.919Z,6.5
2022-09-16T18:45:19.773Z,7.9
2022-09-16T18:50:25.907Z,8.3
2022-09-16T18:55:31.947Z,8.7
2022-09-16T19:00:20.985Z,9.4
2022-09-16T19:05:27.863Z,7.6
2022-09-16T19:10:16.164Z,8.2
2022-09-16T19:15:22.172Z,9.1
2022-09-16T19:20:28.309Z,8.5
2022-09-16T19:25:17.297Z,5.9
2022-09-16T19:30:23.438Z,6.9
2022-09-16T19:35:29.641Z,7.1
2022-09-16T19:40:18.553Z,6.3
2022-09-16T19:45:27.799Z,9.3
2022-09-16T19:50:30.607Z,11.0
2022-09-16T19:55:19.731Z,6.7
2022-09-16T20:00:36.743Z,8.3
2022-09-16T20:05:30.954Z,8.4
2022-09-16T20:10:19.929Z,10.3
2022-09-16T20:15:26.023Z,7.3
2022-09-16T20:20:32.044Z,6.8
2022-09-16T20:25:23.470Z,6.3
2022-09-16T20:30:27.155Z,6.6
2022-09-16T20:35:16.227Z,8.4
2022-09-16T20:40:22.459Z,9.3
2022-09-16T20:45:28.385Z,6.2
2022-09-16T20:50:17.309Z,7.2
2022-09-16T20:55:23.411Z,8.4
2022-09-16T21:00:29.784Z,7.0
2022-09-16T21:05:17.614Z,7.5
2022-09-16T21:10:23.625Z,7.0
2022-09-16T21:15:29.723Z,6.8
2022-09-16T21:20:18.716Z,7.3
2022-09-16T21:25:24.850Z,7.0
2022-09-16T21:30:30.856Z,6.8
2022-09-16T21:35:19.900Z,6.3
2022-09-16T21:40:26.480Z,8.4
2022-09-16T21:45:32.050Z,7.0
2022-09-16T21:50:21.048Z,7.8
2022-09-16T21:55:27.178Z,7.1
2022-09-16T22:00:16.295Z,5.8
2022-09-16T22:05:22.417Z,7.0
2022-09-16T22:10:28.398Z,6.9
2022-09-16T22:15:17.500Z,7.9
2022-09-16T22:20:23.514Z,6.5
2022-09-16T22:25:29.589Z,6.4
2022-09-16T22:30:18.589Z,5.6
2022-09-16T22:35:24.691Z,6.9
2022-09-16T22:40:30.147Z,5.9
2022-09-16T22:45:18.878Z,6.3
2022-09-16T22:50:25.145Z,6.6
2022-09-16T22:55:30.998Z,6.8
2022-09-16T23:00:20.066Z,6.9
2022-09-16T23:05:26.162Z,7.0
2022-09-16T23:10:32.255Z,6.0
2022-09-16T23:15:21.227Z,5.3
2022-09-16T23:20:27.387Z,5.6
2022-09-16T23:25:16.372Z,6.6
2022-09-16T23:30:22.491Z,6.5
2022-09-16T23:35:28.496Z,6.7
2022-09-16T23:40:16.747Z,6.6
2022-09-16T23:45:22.615Z,6.1
2022-09-16T23:50:28.745Z,6.2
2022-09-16T23:55:17.736Z,6.2
